KTTD/TTD METAR and TAF weather

Enter ICAO airport designator
Station Type Date Time Source
KTTD METAR 2019/06/26 19:53 UTC NOAA

KTTD 261953Z VRB05KT 10SM CLR 22/11 A2984 RMK AO2 LTG DSNT NE SLP103 T02220106


Station Type Date Time Source
KTTD Decoded METAR 2019/06/26 19:53 UTC NOAA

PORTLAND-TROUTDALE AIRPORT, OR, United States (KTTD) 45-33N 122-25W 14M
Jun 26, 2019 - 03:53 PM EDT / 2019.06.26 1953 UTC
Wind: Variable at 6 MPH (5 KT):0
Visibility: 10 mile(s):0
Sky conditions: clear
Weather: Lightning observed
Temperature: 72.0 F (22.2 C)
Dew Point: 51.1 F (10.6 C)
Relative Humidity: 47%
Pressure (altimeter): 29.84 in. Hg (1010 hPa)
ob: KTTD 261953Z VRB05KT 10SM CLR 22/11 A2984 RMK AO2 LTG DSNT NE SLP103 T02220106
cycle: 20

Station Type Date Time Source
KTTD TAF 2019/06/26 18:34 UTC NOAA

TAF KTTD 261732Z 2618/2718 00000KT P6SM FEW025 SCT100
FM270000 24005KT P6SM VCTS SCT028 BKN045CB
FM270200 VRB04KT P6SM SHRA VCTS SCT028 BKN045CB OVC100
FM270500 19003KT P6SM OVC050
FM271300 18003KT P6SM OVC025

Example: see airport list